Terminal Aerodrome Forecast
Issued by NWS

Home | Current Version | Previous Version | Text Only | Print | Product List | Glossary On
Versions: 1 2 3 4 5 6 7 8 9 10 11 12 13
000
FTAK31 PAJN 271140
TAFAWG
TAF
PAWG 271140Z 2712/2812 00000KT P6SM SKC
     FM272100 VRB04KT P6SM SCT100
     FM280500 11006KT P6SM BKN080
     FM281000 VRB04KT P6SM VCSH SCT025 OVC040
      AMD LTD TO CLD VIS AND WIND 2712/2715=

USA.gov is the U.S. government's official web portal to all federal, state and local government web resources and services.